createdAt,value
2023-03-21T00:04:24.876Z,6.90
2023-03-21T00:09:27.142Z,6.90
2023-03-21T00:14:31.120Z,6.90
2023-03-21T00:19:33.061Z,6.90
2023-03-21T00:24:36.118Z,6.90
2023-03-21T00:29:38.097Z,6.90
2023-03-21T00:34:43.463Z,6.90
2023-03-21T00:39:56.378Z,6.90
2023-03-21T00:44:58.191Z,6.90
2023-03-21T00:50:00.109Z,6.70
2023-03-21T00:55:02.235Z,6.70
2023-03-21T01:00:07.370Z,6.70
2023-03-21T01:05:11.538Z,6.70
2023-03-21T01:10:13.453Z,6.70
2023-03-21T01:15:15.547Z,6.80
2023-03-21T01:20:17.581Z,6.80
2023-03-21T01:25:22.748Z,6.90
2023-03-21T01:30:28.710Z,6.90
2023-03-21T01:35:44.820Z,6.90
2023-03-21T01:40:51.210Z,7.00
2023-03-21T01:46:53.987Z,7.00
2023-03-21T01:52:38.728Z,7.00
2023-03-21T01:58:04.914Z,7.00
2023-03-21T02:03:26.310Z,6.90
2023-03-21T02:08:41.452Z,7.00
2023-03-21T02:13:48.783Z,6.90
2023-03-21T02:18:58.103Z,6.90
2023-03-21T02:24:12.684Z,6.90
2023-03-21T02:29:39.056Z,7.00
2023-03-21T02:35:00.795Z,6.90
2023-03-21T02:40:15.381Z,6.90
2023-03-21T02:45:25.703Z,6.90
2023-03-21T02:50:34.061Z,6.90
2023-03-21T02:55:38.554Z,6.90
2023-03-21T03:00:42.806Z,6.80
2023-03-21T03:05:56.514Z,6.90
2023-03-21T03:11:22.835Z,6.90
2023-03-21T03:16:43.812Z,6.90
2023-03-21T03:21:56.712Z,6.90
2023-03-21T03:27:04.485Z,6.90
2023-03-21T03:32:12.822Z,6.90
2023-03-21T03:37:21.893Z,6.90
2023-03-21T03:42:47.639Z,6.90
2023-03-21T03:48:15.638Z,6.90
2023-03-21T03:53:25.708Z,6.80
2023-03-21T03:58:43.217Z,6.70
2023-03-21T04:03:52.972Z,6.70
2023-03-21T04:09:03.506Z,6.70
2023-03-21T04:14:07.858Z,6.70
2023-03-21T04:19:10.189Z,6.70
2023-03-21T04:24:13.775Z,6.70
2023-03-21T04:29:17.536Z,6.70
2023-03-21T04:34:50.107Z,6.70
2023-03-21T04:39:53.194Z,6.70
2023-03-21T04:44:56.515Z,6.70
2023-03-21T04:49:58.932Z,6.70
2023-03-21T04:55:01.977Z,6.70
2023-03-21T05:00:16.220Z,6.70
2023-03-21T05:05:18.541Z,6.70
2023-03-21T05:10:20.384Z,6.70
2023-03-21T05:15:22.234Z,6.70
2023-03-21T05:20:24.552Z,6.60
2023-03-21T05:25:34.729Z,6.70
2023-03-21T05:30:48.846Z,6.70
2023-03-21T05:35:51.870Z,6.60
2023-03-21T05:40:55.201Z,6.70
2023-03-21T05:45:57.920Z,6.70
2023-03-21T05:51:04.200Z,6.70
2023-03-21T05:56:06.743Z,6.70
2023-03-21T06:01:20.573Z,6.80
2023-03-21T06:06:30.934Z,6.90
2023-03-21T06:11:38.657Z,6.90
2023-03-21T06:16:56.107Z,7.00
2023-03-21T06:21:58.400Z,7.10
2023-03-21T06:27:02.824Z,7.20
2023-03-21T06:32:19.679Z,7.40
2023-03-21T06:37:26.418Z,7.50
2023-03-21T06:42:30.056Z,7.60
2023-03-21T06:47:36.977Z,7.80
2023-03-21T06:52:42.748Z,8.00
2023-03-21T06:57:45.753Z,8.10
2023-03-21T07:02:51.143Z,8.20
2023-03-21T07:07:54.743Z,8.20
2023-03-21T07:13:01.550Z,8.30
2023-03-21T07:18:26.830Z,8.50
2023-03-21T07:23:28.723Z,8.80
2023-03-21T07:28:33.903Z,9.10
2023-03-21T07:33:36.765Z,9.50
2023-03-21T07:38:39.503Z,9.70
2023-03-21T07:43:41.345Z,10.00
2023-03-21T07:48:45.373Z,10.50
2023-03-21T07:53:48.725Z,10.90
2023-03-21T07:58:50.759Z,11.30
2023-03-21T08:03:53.815Z,11.60
2023-03-21T08:08:55.666Z,11.60
2023-03-21T08:14:01.415Z,11.70
2023-03-21T08:19:03.378Z,11.80
2023-03-21T08:24:07.051Z,11.80
2023-03-21T08:29:09.137Z,11.60
2023-03-21T08:34:10.928Z,11.70
2023-03-21T08:39:12.774Z,11.80
2023-03-21T08:44:17.714Z,12.20
2023-03-21T08:49:19.546Z,12.10
2023-03-21T08:54:22.570Z,12.20
2023-03-21T08:59:24.327Z,12.20
2023-03-21T09:04:26.221Z,12.30
2023-03-21T09:09:29.056Z,12.70
2023-03-21T09:14:31.172Z,12.80
2023-03-21T09:19:33.149Z,12.70
2023-03-21T09:24:34.931Z,12.60
2023-03-21T09:29:36.866Z,12.50
2023-03-21T09:34:41.137Z,12.80
2023-03-21T09:39:44.836Z,12.80
2023-03-21T09:44:50.069Z,13.10
2023-03-21T09:50:15.158Z,13.30
2023-03-21T09:55:26.221Z,13.00
2023-03-21T10:00:37.368Z,12.90
2023-03-21T10:05:40.899Z,13.00
2023-03-21T10:10:50.303Z,13.20
2023-03-21T10:15:57.683Z,13.50
2023-03-21T10:21:06.635Z,13.80
2023-03-21T10:26:09.371Z,14.10
2023-03-21T10:31:17.730Z,14.30
2023-03-21T10:36:26.232Z,14.30
2023-03-21T10:41:28.316Z,14.20
2023-03-21T10:46:30.505Z,13.90
2023-03-21T10:51:36.208Z,14.00
2023-03-21T10:56:43.031Z,14.00
2023-03-21T11:01:49.432Z,14.20
2023-03-21T11:07:09.551Z,14.50
2023-03-21T11:12:16.777Z,14.70
2023-03-21T11:17:18.516Z,14.70
2023-03-21T11:22:27.005Z,14.70
2023-03-21T11:27:31.369Z,14.70
2023-03-21T11:32:38.014Z,14.50
2023-03-21T11:37:47.018Z,14.80
2023-03-21T11:42:51.962Z,14.90
2023-03-21T11:47:56.281Z,14.90
2023-03-21T11:53:19.712Z,15.10
2023-03-21T11:58:27.402Z,14.90
2023-03-21T12:04:21.337Z,14.60
2023-03-21T12:09:23.101Z,14.80
2023-03-21T12:14:53.829Z,15.00
2023-03-21T12:20:23.248Z,15.20
2023-03-21T12:25:32.851Z,15.30
2023-03-21T12:31:01.851Z,15.50
2023-03-21T12:36:06.455Z,15.70
2023-03-21T12:41:40.255Z,15.80
2023-03-21T12:46:53.678Z,15.50
2023-03-21T12:52:08.211Z,15.40
2023-03-21T12:57:16.120Z,15.60
2023-03-21T13:02:28.815Z,15.30
2023-03-21T13:07:37.436Z,15.50
2023-03-21T13:13:02.830Z,15.60
2023-03-21T13:18:32.835Z,15.70
2023-03-21T13:23:37.871Z,15.80
2023-03-21T13:28:41.386Z,15.80
2023-03-21T13:33:47.806Z,15.80
2023-03-21T13:38:52.444Z,15.70
2023-03-21T13:44:05.973Z,15.90
2023-03-21T13:49:10.896Z,15.60
2023-03-21T13:54:16.205Z,15.70
2023-03-21T13:59:35.231Z,15.70
2023-03-21T14:04:42.732Z,15.40
2023-03-21T14:09:58.634Z,15.40
2023-03-21T14:15:25.629Z,15.30
2023-03-21T14:20:33.528Z,15.50
2023-03-21T14:25:46.831Z,15.40
2023-03-21T14:30:57.887Z,15.30
2023-03-21T14:36:12.932Z,15.20
2023-03-21T14:41:24.603Z,15.10
2023-03-21T14:46:27.116Z,15.10
2023-03-21T14:51:29.123Z,14.90
2023-03-21T14:56:31.358Z,14.90
2023-03-21T15:01:34.996Z,14.90
2023-03-21T15:06:56.043Z,14.80
2023-03-21T15:11:58.442Z,14.70
2023-03-21T15:17:04.097Z,14.60
2023-03-21T15:22:28.961Z,14.50
2023-03-21T15:27:35.221Z,14.40
2023-03-21T15:32:37.359Z,14.30
2023-03-21T15:37:39.451Z,14.20
2023-03-21T15:42:42.151Z,14.10
2023-03-21T15:47:52.820Z,14.00
2023-03-21T15:52:55.975Z,13.90
2023-03-21T15:58:13.116Z,13.80
2023-03-21T16:03:21.187Z,13.70
2023-03-21T16:08:27.341Z,13.60
2023-03-21T16:13:29.131Z,13.60
2023-03-21T16:18:31.889Z,13.40
2023-03-21T16:23:33.693Z,13.20
2023-03-21T16:28:35.511Z,13.10
2023-03-21T16:33:37.379Z,12.90
2023-03-21T16:38:39.115Z,12.70
2023-03-21T16:43:43.272Z,12.40
2023-03-21T16:48:47.609Z,12.30
2023-03-21T16:53:49.916Z,12.00
2023-03-21T16:58:54.460Z,11.70
2023-03-21T17:04:00.140Z,11.60
2023-03-21T17:09:02.319Z,11.40
2023-03-21T17:14:04.126Z,11.20
2023-03-21T17:19:17.462Z,11.00
2023-03-21T17:24:19.269Z,10.80
2023-03-21T17:29:21.428Z,10.60
2023-03-21T17:34:23.197Z,10.40
2023-03-21T17:39:26.692Z,10.30
2023-03-21T17:44:28.437Z,10.10
2023-03-21T17:49:31.007Z,10.00
2023-03-21T17:54:32.844Z,9.90
2023-03-21T17:59:34.664Z,9.80
2023-03-21T18:04:36.614Z,9.70
2023-03-21T18:09:38.348Z,9.70
2023-03-21T18:14:40.754Z,9.60
2023-03-21T18:19:43.256Z,9.50
2023-03-21T18:24:47.044Z,9.40
2023-03-21T18:30:28.659Z,9.40
2023-03-21T18:35:14.574Z,9.30
2023-03-21T18:40:22.046Z,9.30
2023-03-21T18:45:25.138Z,9.30
2023-03-21T18:50:27.627Z,9.30
2023-03-21T18:55:44.502Z,9.30
2023-03-21T19:00:47.658Z,9.30
2023-03-21T19:05:49.528Z,9.30
2023-03-21T19:10:51.994Z,9.30
2023-03-21T19:15:54.168Z,9.30
2023-03-21T19:20:58.618Z,9.30
2023-03-21T19:26:00.823Z,9.40
2023-03-21T19:31:07.473Z,9.40
2023-03-21T19:36:18.421Z,9.40
2023-03-21T19:41:23.742Z,9.40
2023-03-21T19:46:26.472Z,9.30
2023-03-21T19:51:30.387Z,9.30
2023-03-21T19:56:32.570Z,9.30
2023-03-21T20:01:34.459Z,9.20
2023-03-21T20:06:36.807Z,9.20
2023-03-21T20:11:39.256Z,9.20
2023-03-21T20:16:43.745Z,9.20
2023-03-21T20:21:52.276Z,9.20
2023-03-21T20:26:57.333Z,9.10
2023-03-21T20:31:59.579Z,9.10
2023-03-21T20:37:03.019Z,9.10
2023-03-21T20:42:05.634Z,9.20
2023-03-21T20:47:08.256Z,9.20
2023-03-21T20:57:34.161Z,9.20
2023-03-21T21:02:36.370Z,9.20
2023-03-21T21:07:38.667Z,9.20
2023-03-21T21:12:42.134Z,9.20
2023-03-21T21:23:09.639Z,9.20
2023-03-21T21:28:11.853Z,9.20
2023-03-21T21:33:14.624Z,9.20
2023-03-21T21:38:19.229Z,9.20
2023-03-21T21:43:21.195Z,9.10
2023-03-21T21:48:23.466Z,9.00
2023-03-21T21:53:28.091Z,9.00
2023-03-21T21:58:33.674Z,8.90
2023-03-21T22:03:41.453Z,8.80
2023-03-21T22:08:46.945Z,8.80
2023-03-21T22:13:49.040Z,8.70
2023-03-21T22:18:50.817Z,8.70
2023-03-21T22:23:52.576Z,8.60
2023-03-21T22:28:54.327Z,8.50
2023-03-21T22:33:56.459Z,8.40
2023-03-21T22:38:58.420Z,8.30
2023-03-21T22:44:00.194Z,8.30
2023-03-21T22:49:02.139Z,8.20
2023-03-21T22:54:04.168Z,8.30
2023-03-21T22:59:05.921Z,8.30
2023-03-21T23:04:07.993Z,8.30
2023-03-21T23:09:09.938Z,8.40
2023-03-21T23:14:13.658Z,8.40
2023-03-21T23:19:15.963Z,8.50
2023-03-21T23:24:17.758Z,8.50
2023-03-21T23:29:19.621Z,8.50
2023-03-21T23:34:21.494Z,8.50
2023-03-21T23:39:23.285Z,8.60
2023-03-21T23:44:25.034Z,8.60
2023-03-21T23:49:26.756Z,8.60
2023-03-21T23:54:28.586Z,8.60
2023-03-21T23:59:30.619Z,8.50
